sensor_id;sensor_type;location;lat;lon;timestamp;P1;durP1;ratioP1;P2;durP2;ratioP2
5297;SDS011;14738;42.668;23.250;2022-07-23T00:02:25;7.50;;;6.53;;
5297;SDS011;14738;42.668;23.250;2022-07-23T00:04:50;8.27;;;6.37;;
5297;SDS011;14738;42.668;23.250;2022-07-23T00:07:16;8.63;;;6.60;;
5297;SDS011;14738;42.668;23.250;2022-07-23T00:09:41;7.37;;;6.50;;
5297;SDS011;14738;42.668;23.250;2022-07-23T00:12:07;6.83;;;5.87;;
5297;SDS011;14738;42.668;23.250;2022-07-23T00:14:32;6.23;;;5.73;;
5297;SDS011;14738;42.668;23.250;2022-07-23T00:16:58;7.07;;;6.43;;
5297;SDS011;14738;42.668;23.250;2022-07-23T00:19:23;6.90;;;6.20;;
5297;SDS011;14738;42.668;23.250;2022-07-23T00:21:48;6.60;;;6.00;;
5297;SDS011;14738;42.668;23.250;2022-07-23T00:24:14;6.80;;;6.10;;
5297;SDS011;14738;42.668;23.250;2022-07-23T00:26:39;8.87;;;7.00;;
5297;SDS011;14738;42.668;23.250;2022-07-23T00:29:05;7.20;;;6.17;;
5297;SDS011;14738;42.668;23.250;2022-07-23T00:31:30;7.50;;;6.87;;
5297;SDS011;14738;42.668;23.250;2022-07-23T00:33:56;6.70;;;6.10;;
5297;SDS011;14738;42.668;23.250;2022-07-23T00:36:22;7.90;;;6.80;;
5297;SDS011;14738;42.668;23.250;2022-07-23T00:38:48;9.03;;;6.30;;
5297;SDS011;14738;42.668;23.250;2022-07-23T00:41:14;7.87;;;6.70;;
5297;SDS011;14738;42.668;23.250;2022-07-23T00:43:40;7.63;;;6.80;;
5297;SDS011;14738;42.668;23.250;2022-07-23T00:46:05;7.03;;;5.70;;
5297;SDS011;14738;42.668;23.250;2022-07-23T00:48:31;7.20;;;5.70;;
5297;SDS011;14738;42.668;23.250;2022-07-23T00:50:56;7.10;;;6.50;;
5297;SDS011;14738;42.668;23.250;2022-07-23T00:53:21;9.87;;;7.00;;
5297;SDS011;14738;42.668;23.250;2022-07-23T00:55:48;9.47;;;6.20;;
5297;SDS011;14738;42.668;23.250;2022-07-23T00:58:14;7.67;;;6.70;;
5297;SDS011;14738;42.668;23.250;2022-07-23T01:00:41;8.50;;;6.50;;
5297;SDS011;14738;42.668;23.250;2022-07-23T01:03:07;7.37;;;6.67;;
5297;SDS011;14738;42.668;23.250;2022-07-23T01:05:33;7.77;;;6.97;;
5297;SDS011;14738;42.668;23.250;2022-07-23T01:07:59;8.57;;;6.47;;
5297;SDS011;14738;42.668;23.250;2022-07-23T01:10:25;12.20;;;6.57;;
5297;SDS011;14738;42.668;23.250;2022-07-23T01:12:57;8.70;;;7.13;;
5297;SDS011;14738;42.668;23.250;2022-07-23T01:15:24;8.63;;;7.00;;
5297;SDS011;14738;42.668;23.250;2022-07-23T01:17:50;8.10;;;7.40;;
5297;SDS011;14738;42.668;23.250;2022-07-23T01:20:16;6.40;;;5.80;;
5297;SDS011;14738;42.668;23.250;2022-07-23T01:22:41;8.57;;;6.90;;
5297;SDS011;14738;42.668;23.250;2022-07-23T01:25:07;7.07;;;6.37;;
5297;SDS011;14738;42.668;23.250;2022-07-23T01:27:33;7.10;;;6.33;;
5297;SDS011;14738;42.668;23.250;2022-07-23T01:30:00;6.90;;;6.30;;
5297;SDS011;14738;42.668;23.250;2022-07-23T01:32:26;9.07;;;7.43;;
5297;SDS011;14738;42.668;23.250;2022-07-23T01:34:51;9.40;;;6.80;;
5297;SDS011;14738;42.668;23.250;2022-07-23T01:37:17;8.00;;;6.77;;
5297;SDS011;14738;42.668;23.250;2022-07-23T01:39:42;7.87;;;7.00;;
5297;SDS011;14738;42.668;23.250;2022-07-23T01:42:08;7.10;;;6.40;;
5297;SDS011;14738;42.668;23.250;2022-07-23T01:44:33;7.70;;;6.63;;
5297;SDS011;14738;42.668;23.250;2022-07-23T01:46:59;8.57;;;6.60;;
5297;SDS011;14738;42.668;23.250;2022-07-23T01:49:24;7.30;;;6.60;;
5297;SDS011;14738;42.668;23.250;2022-07-23T01:51:50;8.33;;;6.70;;
5297;SDS011;14738;42.668;23.250;2022-07-23T01:54:28;8.00;;;7.07;;
5297;SDS011;14738;42.668;23.250;2022-07-23T01:56:55;8.17;;;7.30;;
5297;SDS011;14738;42.668;23.250;2022-07-23T01:59:21;8.43;;;6.90;;
5297;SDS011;14738;42.668;23.250;2022-07-23T02:01:47;7.70;;;6.90;;
5297;SDS011;14738;42.668;23.250;2022-07-23T02:04:15;10.50;;;8.00;;
5297;SDS011;14738;42.668;23.250;2022-07-23T02:06:41;12.13;;;7.50;;
5297;SDS011;14738;42.668;23.250;2022-07-23T02:09:07;11.60;;;7.27;;
5297;SDS011;14738;42.668;23.250;2022-07-23T02:11:32;9.53;;;7.47;;
5297;SDS011;14738;42.668;23.250;2022-07-23T02:13:58;9.07;;;7.13;;
5297;SDS011;14738;42.668;23.250;2022-07-23T02:16:23;6.73;;;6.13;;
5297;SDS011;14738;42.668;23.250;2022-07-23T02:18:49;7.47;;;6.80;;
5297;SDS011;14738;42.668;23.250;2022-07-23T02:21:14;7.10;;;6.40;;
5297;SDS011;14738;42.668;23.250;2022-07-23T02:23:40;10.20;;;6.63;;
5297;SDS011;14738;42.668;23.250;2022-07-23T02:26:05;8.80;;;6.83;;
5297;SDS011;14738;42.668;23.250;2022-07-23T02:28:30;10.00;;;6.80;;
5297;SDS011;14738;42.668;23.250;2022-07-23T02:30:56;7.17;;;6.47;;
5297;SDS011;14738;42.668;23.250;2022-07-23T02:33:21;7.90;;;7.10;;
5297;SDS011;14738;42.668;23.250;2022-07-23T02:35:47;7.97;;;6.70;;
5297;SDS011;14738;42.668;23.250;2022-07-23T02:38:12;9.70;;;7.47;;
5297;SDS011;14738;42.668;23.250;2022-07-23T02:40:38;7.23;;;6.50;;
5297;SDS011;14738;42.668;23.250;2022-07-23T02:43:03;8.40;;;7.20;;
5297;SDS011;14738;42.668;23.250;2022-07-23T02:45:29;8.33;;;7.10;;
5297;SDS011;14738;42.668;23.250;2022-07-23T02:47:54;8.03;;;7.07;;
5297;SDS011;14738;42.668;23.250;2022-07-23T02:50:20;8.23;;;6.27;;
5297;SDS011;14738;42.668;23.250;2022-07-23T02:52:45;11.73;;;6.97;;
5297;SDS011;14738;42.668;23.250;2022-07-23T02:55:11;11.00;;;7.27;;
5297;SDS011;14738;42.668;23.250;2022-07-23T02:57:37;8.70;;;6.83;;
5297;SDS011;14738;42.668;23.250;2022-07-23T03:00:03;8.27;;;7.03;;
5297;SDS011;14738;42.668;23.250;2022-07-23T03:02:30;7.30;;;6.60;;
5297;SDS011;14738;42.668;23.250;2022-07-23T03:04:55;11.13;;;6.57;;
5297;SDS011;14738;42.668;23.250;2022-07-23T03:07:21;6.80;;;6.10;;
5297;SDS011;14738;42.668;23.250;2022-07-23T03:09:46;15.23;;;6.80;;
5297;SDS011;14738;42.668;23.250;2022-07-23T03:12:12;10.23;;;6.47;;
5297;SDS011;14738;42.668;23.250;2022-07-23T03:14:37;7.10;;;6.37;;
5297;SDS011;14738;42.668;23.250;2022-07-23T03:17:03;8.43;;;6.40;;
5297;SDS011;14738;42.668;23.250;2022-07-23T03:19:28;8.13;;;6.93;;
5297;SDS011;14738;42.668;23.250;2022-07-23T03:21:53;9.03;;;7.20;;
5297;SDS011;14738;42.668;23.250;2022-07-23T03:24:19;9.30;;;6.67;;
5297;SDS011;14738;42.668;23.250;2022-07-23T03:26:44;7.50;;;6.70;;
5297;SDS011;14738;42.668;23.250;2022-07-23T03:29:10;11.27;;;6.90;;
5297;SDS011;14738;42.668;23.250;2022-07-23T03:31:35;8.67;;;6.50;;
5297;SDS011;14738;42.668;23.250;2022-07-23T03:34:01;7.33;;;6.63;;
5297;SDS011;14738;42.668;23.250;2022-07-23T03:36:26;8.97;;;7.07;;
5297;SDS011;14738;42.668;23.250;2022-07-23T03:38:52;8.23;;;6.60;;
5297;SDS011;14738;42.668;23.250;2022-07-23T03:41:19;9.00;;;7.40;;
5297;SDS011;14738;42.668;23.250;2022-07-23T03:43:45;7.97;;;7.17;;
5297;SDS011;14738;42.668;23.250;2022-07-23T03:46:10;7.77;;;6.97;;
5297;SDS011;14738;42.668;23.250;2022-07-23T03:48:36;8.37;;;7.50;;
5297;SDS011;14738;42.668;23.250;2022-07-23T03:51:02;10.70;;;7.13;;
5297;SDS011;14738;42.668;23.250;2022-07-23T03:53:28;7.30;;;6.50;;
5297;SDS011;14738;42.668;23.250;2022-07-23T03:55:53;7.50;;;6.70;;
5297;SDS011;14738;42.668;23.250;2022-07-23T03:58:19;8.70;;;7.60;;
5297;SDS011;14738;42.668;23.250;2022-07-23T04:00:44;10.13;;;7.37;;
5297;SDS011;14738;42.668;23.250;2022-07-23T04:03:10;7.13;;;6.43;;
5297;SDS011;14738;42.668;23.250;2022-07-23T04:05:35;9.67;;;7.80;;
5297;SDS011;14738;42.668;23.250;2022-07-23T04:08:01;8.97;;;8.07;;
5297;SDS011;14738;42.668;23.250;2022-07-23T04:10:26;8.80;;;7.90;;
5297;SDS011;14738;42.668;23.250;2022-07-23T04:12:51;10.43;;;7.77;;
5297;SDS011;14738;42.668;23.250;2022-07-23T04:15:17;7.77;;;7.10;;
5297;SDS011;14738;42.668;23.250;2022-07-23T04:17:42;8.70;;;7.83;;
5297;SDS011;14738;42.668;23.250;2022-07-23T04:20:09;9.57;;;7.80;;
5297;SDS011;14738;42.668;23.250;2022-07-23T04:22:35;12.30;;;7.23;;
5297;SDS011;14738;42.668;23.250;2022-07-23T04:25:01;9.80;;;6.73;;
5297;SDS011;14738;42.668;23.250;2022-07-23T04:27:27;7.80;;;7.13;;
5297;SDS011;14738;42.668;23.250;2022-07-23T04:29:53;9.97;;;7.70;;
5297;SDS011;14738;42.668;23.250;2022-07-23T04:32:18;8.23;;;6.60;;
5297;SDS011;14738;42.668;23.250;2022-07-23T04:34:44;8.13;;;7.33;;
5297;SDS011;14738;42.668;23.250;2022-07-23T04:37:09;9.50;;;6.87;;
5297;SDS011;14738;42.668;23.250;2022-07-23T04:39:35;9.10;;;7.30;;
5297;SDS011;14738;42.668;23.250;2022-07-23T04:42:00;10.00;;;8.10;;
5297;SDS011;14738;42.668;23.250;2022-07-23T04:44:25;11.90;;;7.53;;
5297;SDS011;14738;42.668;23.250;2022-07-23T04:46:51;7.10;;;6.40;;
5297;SDS011;14738;42.668;23.250;2022-07-23T04:49:16;18.97;;;6.50;;
5297;SDS011;14738;42.668;23.250;2022-07-23T04:51:42;10.03;;;7.00;;
5297;SDS011;14738;42.668;23.250;2022-07-23T04:54:07;7.47;;;6.73;;
5297;SDS011;14738;42.668;23.250;2022-07-23T04:56:32;8.43;;;7.60;;
5297;SDS011;14738;42.668;23.250;2022-07-23T04:58:58;9.40;;;8.40;;
5297;SDS011;14738;42.668;23.250;2022-07-23T05:01:23;10.63;;;6.90;;
5297;SDS011;14738;42.668;23.250;2022-07-23T05:03:49;10.73;;;8.20;;
5297;SDS011;14738;42.668;23.250;2022-07-23T05:06:14;9.23;;;7.83;;
5297;SDS011;14738;42.668;23.250;2022-07-23T05:08:40;7.87;;;6.77;;
5297;SDS011;14738;42.668;23.250;2022-07-23T05:11:05;11.53;;;8.80;;
5297;SDS011;14738;42.668;23.250;2022-07-23T05:13:31;8.50;;;7.60;;
5297;SDS011;14738;42.668;23.250;2022-07-23T05:15:56;9.07;;;8.10;;
5297;SDS011;14738;42.668;23.250;2022-07-23T05:18:22;12.13;;;7.80;;
5297;SDS011;14738;42.668;23.250;2022-07-23T05:20:47;9.50;;;7.73;;
5297;SDS011;14738;42.668;23.250;2022-07-23T05:23:13;9.03;;;8.10;;
5297;SDS011;14738;42.668;23.250;2022-07-23T05:25:39;10.50;;;7.90;;
5297;SDS011;14738;42.668;23.250;2022-07-23T05:28:04;9.33;;;8.43;;
5297;SDS011;14738;42.668;23.250;2022-07-23T05:30:30;8.83;;;7.93;;
5297;SDS011;14738;42.668;23.250;2022-07-23T05:32:55;8.10;;;7.40;;
5297;SDS011;14738;42.668;23.250;2022-07-23T05:35:21;12.93;;;7.97;;
5297;SDS011;14738;42.668;23.250;2022-07-23T05:37:46;9.77;;;8.83;;
5297;SDS011;14738;42.668;23.250;2022-07-23T05:40:12;8.33;;;7.57;;
5297;SDS011;14738;42.668;23.250;2022-07-23T05:42:38;7.60;;;6.77;;
5297;SDS011;14738;42.668;23.250;2022-07-23T05:45:05;11.33;;;7.30;;
5297;SDS011;14738;42.668;23.250;2022-07-23T05:47:45;10.23;;;7.20;;
5297;SDS011;14738;42.668;23.250;2022-07-23T05:50:14;11.73;;;7.70;;
5297;SDS011;14738;42.668;23.250;2022-07-23T05:52:40;15.03;;;8.80;;
5297;SDS011;14738;42.668;23.250;2022-07-23T05:55:06;8.43;;;7.67;;
5297;SDS011;14738;42.668;23.250;2022-07-23T05:57:33;10.00;;;8.70;;
5297;SDS011;14738;42.668;23.250;2022-07-23T05:59:59;10.97;;;8.00;;
5297;SDS011;14738;42.668;23.250;2022-07-23T06:02:25;12.50;;;7.60;;
5297;SDS011;14738;42.668;23.250;2022-07-23T06:04:50;8.50;;;7.70;;
5297;SDS011;14738;42.668;23.250;2022-07-23T06:07:15;8.87;;;7.40;;
5297;SDS011;14738;42.668;23.250;2022-07-23T06:09:41;10.53;;;8.03;;
5297;SDS011;14738;42.668;23.250;2022-07-23T06:12:06;8.33;;;7.53;;
5297;SDS011;14738;42.668;23.250;2022-07-23T06:14:32;9.87;;;8.50;;
5297;SDS011;14738;42.668;23.250;2022-07-23T06:16:58;12.50;;;8.87;;
5297;SDS011;14738;42.668;23.250;2022-07-23T06:19:24;10.43;;;8.50;;
5297;SDS011;14738;42.668;23.250;2022-07-23T06:21:50;8.60;;;7.90;;
5297;SDS011;14738;42.668;23.250;2022-07-23T06:24:15;8.63;;;7.73;;
5297;SDS011;14738;42.668;23.250;2022-07-23T06:26:41;10.10;;;8.13;;
5297;SDS011;14738;42.668;23.250;2022-07-23T06:29:06;8.17;;;7.37;;
5297;SDS011;14738;42.668;23.250;2022-07-23T06:31:32;12.80;;;8.27;;
5297;SDS011;14738;42.668;23.250;2022-07-23T06:33:58;8.77;;;7.87;;
5297;SDS011;14738;42.668;23.250;2022-07-23T06:36:24;8.30;;;7.50;;
5297;SDS011;14738;42.668;23.250;2022-07-23T06:38:49;8.70;;;8.00;;
5297;SDS011;14738;42.668;23.250;2022-07-23T06:41:15;8.53;;;7.67;;
5297;SDS011;14738;42.668;23.250;2022-07-23T06:43:40;10.00;;;7.63;;
5297;SDS011;14738;42.668;23.250;2022-07-23T06:46:06;12.80;;;7.60;;
5297;SDS011;14738;42.668;23.250;2022-07-23T06:48:31;10.00;;;7.40;;
5297;SDS011;14738;42.668;23.250;2022-07-23T06:50:56;7.60;;;6.83;;
5297;SDS011;14738;42.668;23.250;2022-07-23T06:53:22;8.70;;;7.38;;
5297;SDS011;14738;42.668;23.250;2022-07-23T06:55:48;10.23;;;7.93;;
5297;SDS011;14738;42.668;23.250;2022-07-23T06:58:13;8.10;;;7.40;;
5297;SDS011;14738;42.668;23.250;2022-07-23T07:00:39;9.67;;;7.10;;
5297;SDS011;14738;42.668;23.250;2022-07-23T07:03:05;8.00;;;7.30;;
5297;SDS011;14738;42.668;23.250;2022-07-23T07:05:30;7.80;;;7.20;;
5297;SDS011;14738;42.668;23.250;2022-07-23T07:07:56;10.60;;;7.03;;
5297;SDS011;14738;42.668;23.250;2022-07-23T07:10:21;14.53;;;7.80;;
5297;SDS011;14738;42.668;23.250;2022-07-23T07:12:47;6.93;;;6.33;;
5297;SDS011;14738;42.668;23.250;2022-07-23T07:15:12;9.87;;;7.87;;
5297;SDS011;14738;42.668;23.250;2022-07-23T07:17:38;10.52;;;7.30;;
5297;SDS011;14738;42.668;23.250;2022-07-23T07:20:04;7.80;;;7.10;;
5297;SDS011;14738;42.668;23.250;2022-07-23T07:22:30;7.85;;;7.20;;
5297;SDS011;14738;42.668;23.250;2022-07-23T07:24:56;7.30;;;6.60;;
5297;SDS011;14738;42.668;23.250;2022-07-23T07:27:22;8.00;;;7.40;;
5297;SDS011;14738;42.668;23.250;2022-07-23T07:29:47;7.63;;;6.90;;
5297;SDS011;14738;42.668;23.250;2022-07-23T07:32:12;8.83;;;7.90;;
5297;SDS011;14738;42.668;23.250;2022-07-23T07:34:38;31.37;;;8.63;;
5297;SDS011;14738;42.668;23.250;2022-07-23T07:37:03;8.80;;;8.00;;
5297;SDS011;14738;42.668;23.250;2022-07-23T07:39:29;9.33;;;8.27;;
5297;SDS011;14738;42.668;23.250;2022-07-23T07:41:54;9.30;;;8.20;;
5297;SDS011;14738;42.668;23.250;2022-07-23T07:44:20;8.50;;;7.80;;
5297;SDS011;14738;42.668;23.250;2022-07-23T07:46:45;9.23;;;8.33;;
5297;SDS011;14738;42.668;23.250;2022-07-23T07:49:10;11.57;;;8.40;;
5297;SDS011;14738;42.668;23.250;2022-07-23T07:51:36;10.67;;;9.73;;
5297;SDS011;14738;42.668;23.250;2022-07-23T07:54:01;16.90;;;9.50;;
5297;SDS011;14738;42.668;23.250;2022-07-23T07:56:30;11.33;;;8.00;;
5297;SDS011;14738;42.668;23.250;2022-07-23T07:58:55;9.90;;;8.90;;
5297;SDS011;14738;42.668;23.250;2022-07-23T08:01:20;8.67;;;7.87;;
5297;SDS011;14738;42.668;23.250;2022-07-23T08:03:46;8.40;;;7.70;;
5297;SDS011;14738;42.668;23.250;2022-07-23T08:06:12;10.37;;;8.83;;
5297;SDS011;14738;42.668;23.250;2022-07-23T08:08:37;9.93;;;7.87;;
5297;SDS011;14738;42.668;23.250;2022-07-23T08:11:03;9.13;;;7.80;;
5297;SDS011;14738;42.668;23.250;2022-07-23T08:13:28;11.20;;;10.10;;
5297;SDS011;14738;42.668;23.250;2022-07-23T08:15:53;18.87;;;16.47;;
5297;SDS011;14738;42.668;23.250;2022-07-23T08:18:20;11.40;;;9.20;;
5297;SDS011;14738;42.668;23.250;2022-07-23T08:20:46;16.47;;;8.10;;
5297;SDS011;14738;42.668;23.250;2022-07-23T08:23:11;8.70;;;7.90;;
5297;SDS011;14738;42.668;23.250;2022-07-23T08:25:40;9.27;;;8.37;;
5297;SDS011;14738;42.668;23.250;2022-07-23T08:28:07;8.30;;;7.60;;
5297;SDS011;14738;42.668;23.250;2022-07-23T08:30:36;10.40;;;7.60;;
5297;SDS011;14738;42.668;23.250;2022-07-23T08:33:03;9.77;;;7.90;;
5297;SDS011;14738;42.668;23.250;2022-07-23T08:35:36;10.93;;;7.80;;
5297;SDS011;14738;42.668;23.250;2022-07-23T08:38:04;9.57;;;8.63;;
5297;SDS011;14738;42.668;23.250;2022-07-23T08:40:33;9.00;;;8.17;;
5297;SDS011;14738;42.668;23.250;2022-07-23T08:43:01;8.60;;;7.90;;
5297;SDS011;14738;42.668;23.250;2022-07-23T08:45:30;9.60;;;8.37;;
5297;SDS011;14738;42.668;23.250;2022-07-23T08:48:02;10.13;;;8.07;;
5297;SDS011;14738;42.668;23.250;2022-07-23T08:50:28;13.50;;;9.33;;
5297;SDS011;14738;42.668;23.250;2022-07-23T08:52:54;16.57;;;8.00;;
5297;SDS011;14738;42.668;23.250;2022-07-23T08:55:22;9.90;;;9.00;;
5297;SDS011;14738;42.668;23.250;2022-07-23T08:57:48;10.03;;;9.17;;
5297;SDS011;14738;42.668;23.250;2022-07-23T09:00:15;12.27;;;11.10;;
5297;SDS011;14738;42.668;23.250;2022-07-23T09:02:42;12.20;;;9.43;;
5297;SDS011;14738;42.668;23.250;2022-07-23T09:05:09;9.00;;;8.20;;
5297;SDS011;14738;42.668;23.250;2022-07-23T09:13:22;18.00;;;9.40;;
5297;SDS011;14738;42.668;23.250;2022-07-23T09:15:48;8.80;;;8.00;;
5297;SDS011;14738;42.668;23.250;2022-07-23T09:18:15;8.70;;;7.90;;
5297;SDS011;14738;42.668;23.250;2022-07-23T09:20:41;13.80;;;8.50;;
5297;SDS011;14738;42.668;23.250;2022-07-23T09:23:08;8.97;;;8.03;;
5297;SDS011;14738;42.668;23.250;2022-07-23T09:25:33;8.40;;;7.63;;
5297;SDS011;14738;42.668;23.250;2022-07-23T09:27:59;9.40;;;8.40;;
5297;SDS011;14738;42.668;23.250;2022-07-23T09:30:29;12.40;;;7.40;;
5297;SDS011;14738;42.668;23.250;2022-07-23T09:38:20;7.50;;;6.90;;
5297;SDS011;14738;42.668;23.250;2022-07-23T09:41:04;7.10;;;6.50;;
5297;SDS011;14738;42.668;23.250;2022-07-23T09:43:36;10.17;;;7.30;;
5297;SDS011;14738;42.668;23.250;2022-07-23T09:46:18;9.17;;;7.10;;
5297;SDS011;14738;42.668;23.250;2022-07-23T09:48:45;8.73;;;7.10;;
5297;SDS011;14738;42.668;23.250;2022-07-23T09:51:11;7.30;;;6.60;;
5297;SDS011;14738;42.668;23.250;2022-07-23T09:53:38;7.33;;;6.03;;
5297;SDS011;14738;42.668;23.250;2022-07-23T09:56:03;8.97;;;7.93;;
5297;SDS011;14738;42.668;23.250;2022-07-23T09:58:30;7.27;;;6.60;;
5297;SDS011;14738;42.668;23.250;2022-07-23T10:00:56;8.40;;;7.50;;
5297;SDS011;14738;42.668;23.250;2022-07-23T10:03:23;9.13;;;6.73;;
5297;SDS011;14738;42.668;23.250;2022-07-23T10:05:48;10.50;;;7.33;;
5297;SDS011;14738;42.668;23.250;2022-07-23T10:08:17;7.77;;;6.57;;
5297;SDS011;14738;42.668;23.250;2022-07-23T10:10:45;10.00;;;6.90;;
5297;SDS011;14738;42.668;23.250;2022-07-23T10:13:12;12.60;;;7.00;;
5297;SDS011;14738;42.668;23.250;2022-07-23T10:15:58;7.33;;;6.73;;
5297;SDS011;14738;42.668;23.250;2022-07-23T10:18:24;10.07;;;8.20;;
5297;SDS011;14738;42.668;23.250;2022-07-23T10:20:50;6.67;;;6.17;;
5297;SDS011;14738;42.668;23.250;2022-07-23T10:31:34;6.63;;;5.93;;
5297;SDS011;14738;42.668;23.250;2022-07-23T10:37:17;6.93;;;6.33;;
5297;SDS011;14738;42.668;23.250;2022-07-23T10:40:07;7.47;;;6.67;;
5297;SDS011;14738;42.668;23.250;2022-07-23T10:42:36;8.93;;;5.40;;
5297;SDS011;14738;42.668;23.250;2022-07-23T10:45:03;7.40;;;6.33;;
5297;SDS011;14738;42.668;23.250;2022-07-23T10:47:52;12.20;;;5.90;;
5297;SDS011;14738;42.668;23.250;2022-07-23T10:50:25;5.73;;;5.23;;
5297;SDS011;14738;42.668;23.250;2022-07-23T10:57:59;5.30;;;4.80;;
5297;SDS011;14738;42.668;23.250;2022-07-23T11:00:29;5.57;;;5.03;;
5297;SDS011;14738;42.668;23.250;2022-07-23T11:02:57;6.90;;;5.70;;
5297;SDS011;14738;42.668;23.250;2022-07-23T11:05:44;7.60;;;5.60;;
5297;SDS011;14738;42.668;23.250;2022-07-23T11:10:44;8.90;;;5.53;;
5297;SDS011;14738;42.668;23.250;2022-07-23T11:13:42;11.70;;;5.50;;
5297;SDS011;14738;42.668;23.250;2022-07-23T11:34:40;8.70;;;5.30;;
5297;SDS011;14738;42.668;23.250;2022-07-23T11:37:06;9.73;;;5.10;;
5297;SDS011;14738;42.668;23.250;2022-07-23T11:39:34;7.10;;;5.17;;
5297;SDS011;14738;42.668;23.250;2022-07-23T11:42:00;9.47;;;5.03;;
5297;SDS011;14738;42.668;23.250;2022-07-23T11:44:30;7.20;;;4.17;;
5297;SDS011;14738;42.668;23.250;2022-07-23T11:47:02;6.27;;;5.70;;
5297;SDS011;14738;42.668;23.250;2022-07-23T11:49:35;11.03;;;4.50;;
5297;SDS011;14738;42.668;23.250;2022-07-23T11:52:08;14.63;;;4.90;;
5297;SDS011;14738;42.668;23.250;2022-07-23T11:54:48;10.83;;;4.23;;
5297;SDS011;14738;42.668;23.250;2022-07-23T11:57:14;14.13;;;5.63;;
5297;SDS011;14738;42.668;23.250;2022-07-23T11:59:43;6.37;;;4.50;;
5297;SDS011;14738;42.668;23.250;2022-07-23T12:02:10;10.80;;;5.70;;
5297;SDS011;14738;42.668;23.250;2022-07-23T12:04:44;15.63;;;7.00;;
5297;SDS011;14738;42.668;23.250;2022-07-23T12:10:03;16.77;;;5.63;;
5297;SDS011;14738;42.668;23.250;2022-07-23T12:12:42;12.07;;;4.90;;
5297;SDS011;14738;42.668;23.250;2022-07-23T12:15:14;4.73;;;4.27;;
5297;SDS011;14738;42.668;23.250;2022-07-23T12:17:42;11.23;;;4.60;;
5297;SDS011;14738;42.668;23.250;2022-07-23T12:20:11;9.13;;;4.90;;
5297;SDS011;14738;42.668;23.250;2022-07-23T12:22:41;10.00;;;5.67;;
5297;SDS011;14738;42.668;23.250;2022-07-23T12:25:13;6.83;;;4.60;;
5297;SDS011;14738;42.668;23.250;2022-07-23T12:27:40;7.67;;;5.03;;
5297;SDS011;14738;42.668;23.250;2022-07-23T12:30:22;9.53;;;4.53;;
5297;SDS011;14738;42.668;23.250;2022-07-23T12:32:51;5.50;;;4.90;;
5297;SDS011;14738;42.668;23.250;2022-07-23T12:35:18;6.97;;;5.10;;
5297;SDS011;14738;42.668;23.250;2022-07-23T12:37:44;5.43;;;4.60;;
5297;SDS011;14738;42.668;23.250;2022-07-23T12:42:49;8.53;;;5.20;;
5297;SDS011;14738;42.668;23.250;2022-07-23T12:45:42;8.87;;;4.93;;
5297;SDS011;14738;42.668;23.250;2022-07-23T12:48:15;6.87;;;5.00;;
5297;SDS011;14738;42.668;23.250;2022-07-23T12:50:55;8.23;;;5.10;;
5297;SDS011;14738;42.668;23.250;2022-07-23T12:55:48;10.03;;;4.97;;
5297;SDS011;14738;42.668;23.250;2022-07-23T12:58:19;10.57;;;4.90;;
5297;SDS011;14738;42.668;23.250;2022-07-23T13:01:04;8.30;;;4.60;;
5297;SDS011;14738;42.668;23.250;2022-07-23T13:03:40;8.53;;;5.27;;
5297;SDS011;14738;42.668;23.250;2022-07-23T13:06:09;6.20;;;4.83;;
5297;SDS011;14738;42.668;23.250;2022-07-23T13:08:37;8.23;;;5.73;;
5297;SDS011;14738;42.668;23.250;2022-07-23T13:11:05;6.40;;;5.50;;
5297;SDS011;14738;42.668;23.250;2022-07-23T13:13:32;10.70;;;4.70;;
5297;SDS011;14738;42.668;23.250;2022-07-23T13:15:59;12.23;;;4.63;;
5297;SDS011;14738;42.668;23.250;2022-07-23T13:18:25;7.67;;;5.00;;
5297;SDS011;14738;42.668;23.250;2022-07-23T13:20:51;10.43;;;6.10;;
5297;SDS011;14738;42.668;23.250;2022-07-23T13:23:18;9.40;;;5.70;;
5297;SDS011;14738;42.668;23.250;2022-07-23T13:25:44;13.70;;;5.30;;
5297;SDS011;14738;42.668;23.250;2022-07-23T13:28:10;8.57;;;5.27;;
5297;SDS011;14738;42.668;23.250;2022-07-23T13:30:36;10.10;;;6.97;;
5297;SDS011;14738;42.668;23.250;2022-07-23T13:33:03;20.07;;;6.13;;
5297;SDS011;14738;42.668;23.250;2022-07-23T13:35:29;11.10;;;5.30;;
5297;SDS011;14738;42.668;23.250;2022-07-23T13:37:54;7.93;;;4.97;;
5297;SDS011;14738;42.668;23.250;2022-07-23T13:40:20;9.17;;;5.00;;
5297;SDS011;14738;42.668;23.250;2022-07-23T13:42:45;12.70;;;6.03;;
5297;SDS011;14738;42.668;23.250;2022-07-23T13:45:11;9.60;;;6.47;;
5297;SDS011;14738;42.668;23.250;2022-07-23T13:47:37;9.70;;;6.10;;
5297;SDS011;14738;42.668;23.250;2022-07-23T13:50:02;5.90;;;5.37;;
5297;SDS011;14738;42.668;23.250;2022-07-23T13:52:29;11.40;;;5.00;;
5297;SDS011;14738;42.668;23.250;2022-07-23T13:54:54;8.10;;;5.67;;
5297;SDS011;14738;42.668;23.250;2022-07-23T13:57:20;8.77;;;5.57;;
5297;SDS011;14738;42.668;23.250;2022-07-23T13:59:45;5.80;;;4.13;;
5297;SDS011;14738;42.668;23.250;2022-07-23T14:02:10;7.00;;;5.00;;
5297;SDS011;14738;42.668;23.250;2022-07-23T14:04:41;10.73;;;5.90;;
5297;SDS011;14738;42.668;23.250;2022-07-23T14:07:07;7.43;;;5.87;;
5297;SDS011;14738;42.668;23.250;2022-07-23T14:09:32;7.27;;;4.97;;
5297;SDS011;14738;42.668;23.250;2022-07-23T14:11:58;7.30;;;5.00;;
5297;SDS011;14738;42.668;23.250;2022-07-23T14:14:24;10.93;;;6.20;;
5297;SDS011;14738;42.668;23.250;2022-07-23T14:16:50;6.07;;;5.50;;
5297;SDS011;14738;42.668;23.250;2022-07-23T14:19:15;11.07;;;5.07;;
5297;SDS011;14738;42.668;23.250;2022-07-23T14:21:41;15.20;;;9.20;;
5297;SDS011;14738;42.668;23.250;2022-07-23T14:24:06;5.83;;;5.20;;
5297;SDS011;14738;42.668;23.250;2022-07-23T14:26:32;8.13;;;5.07;;
5297;SDS011;14738;42.668;23.250;2022-07-23T14:28:57;7.03;;;4.70;;
5297;SDS011;14738;42.668;23.250;2022-07-23T14:31:23;12.23;;;4.53;;
5297;SDS011;14738;42.668;23.250;2022-07-23T14:33:48;9.10;;;5.13;;
5297;SDS011;14738;42.668;23.250;2022-07-23T14:36:14;5.17;;;4.60;;
5297;SDS011;14738;42.668;23.250;2022-07-23T14:38:39;6.00;;;4.50;;
5297;SDS011;14738;42.668;23.250;2022-07-23T14:41:05;7.37;;;5.37;;
5297;SDS011;14738;42.668;23.250;2022-07-23T14:43:33;7.50;;;5.13;;
5297;SDS011;14738;42.668;23.250;2022-07-23T14:45:59;7.63;;;4.57;;
5297;SDS011;14738;42.668;23.250;2022-07-23T14:48:24;9.03;;;4.90;;
5297;SDS011;14738;42.668;23.250;2022-07-23T14:50:50;8.13;;;6.70;;
5297;SDS011;14738;42.668;23.250;2022-07-23T14:53:15;10.93;;;6.17;;
5297;SDS011;14738;42.668;23.250;2022-07-23T14:55:41;11.30;;;5.40;;
5297;SDS011;14738;42.668;23.250;2022-07-23T14:58:06;5.93;;;5.00;;
5297;SDS011;14738;42.668;23.250;2022-07-23T15:00:32;6.77;;;4.97;;
5297;SDS011;14738;42.668;23.250;2022-07-23T15:02:57;4.97;;;4.53;;
5297;SDS011;14738;42.668;23.250;2022-07-23T15:05:23;6.07;;;4.23;;
5297;SDS011;14738;42.668;23.250;2022-07-23T15:07:49;6.83;;;5.33;;
5297;SDS011;14738;42.668;23.250;2022-07-23T15:10:14;11.37;;;5.50;;
5297;SDS011;14738;42.668;23.250;2022-07-23T15:12:40;8.70;;;4.87;;
5297;SDS011;14738;42.668;23.250;2022-07-23T15:15:05;10.53;;;5.30;;
5297;SDS011;14738;42.668;23.250;2022-07-23T15:17:32;7.90;;;4.60;;
5297;SDS011;14738;42.668;23.250;2022-07-23T15:19:57;10.13;;;5.50;;
5297;SDS011;14738;42.668;23.250;2022-07-23T15:22:23;6.90;;;6.20;;
5297;SDS011;14738;42.668;23.250;2022-07-23T15:24:48;8.80;;;4.83;;
5297;SDS011;14738;42.668;23.250;2022-07-23T15:27:14;7.40;;;5.57;;
5297;SDS011;14738;42.668;23.250;2022-07-23T15:29:41;13.03;;;5.20;;
5297;SDS011;14738;42.668;23.250;2022-07-23T15:32:06;6.07;;;4.37;;
5297;SDS011;14738;42.668;23.250;2022-07-23T15:34:32;9.13;;;5.77;;
5297;SDS011;14738;42.668;23.250;2022-07-23T15:37:00;9.33;;;5.20;;
5297;SDS011;14738;42.668;23.250;2022-07-23T15:39:26;11.13;;;5.53;;